sensor_id;sensor_type;location;lat;lon;timestamp;P1;durP1;ratioP1;P2;durP2;ratioP2
25319;SDS011;13256;49.012;8.610;2023-04-24T00:05:35;1.13;;;0.47;;
25319;SDS011;13256;49.012;8.610;2023-04-24T00:08:06;1.27;;;0.60;;
25319;SDS011;13256;49.012;8.610;2023-04-24T00:10:36;0.38;;;0.38;;
25319;SDS011;13256;49.012;8.610;2023-04-24T00:13:06;1.27;;;0.52;;
25319;SDS011;13256;49.012;8.610;2023-04-24T00:15:32;3.00;;;0.60;;
25319;SDS011;13256;49.012;8.610;2023-04-24T00:18:00;1.05;;;0.57;;
25319;SDS011;13256;49.012;8.610;2023-04-24T00:20:27;0.75;;;0.70;;
25319;SDS011;13256;49.012;8.610;2023-04-24T00:22:55;0.75;;;0.47;;
25319;SDS011;13256;49.012;8.610;2023-04-24T00:25:25;0.85;;;0.52;;
25319;SDS011;13256;49.012;8.610;2023-04-24T00:27:53;0.50;;;0.47;;
25319;SDS011;13256;49.012;8.610;2023-04-24T00:30:23;2.05;;;0.50;;
25319;SDS011;13256;49.012;8.610;2023-04-24T00:32:49;5.85;;;0.80;;
25319;SDS011;13256;49.012;8.610;2023-04-24T00:35:23;0.50;;;0.50;;
25319;SDS011;13256;49.012;8.610;2023-04-24T00:37:50;1.23;;;0.40;;
25319;SDS011;13256;49.012;8.610;2023-04-24T00:40:17;1.88;;;0.60;;
25319;SDS011;13256;49.012;8.610;2023-04-24T00:42:46;2.80;;;0.50;;
25319;SDS011;13256;49.012;8.610;2023-04-24T00:45:14;2.67;;;0.63;;
25319;SDS011;13256;49.012;8.610;2023-04-24T00:47:41;1.85;;;0.70;;
25319;SDS011;13256;49.012;8.610;2023-04-24T00:50:09;1.02;;;0.50;;
25319;SDS011;13256;49.012;8.610;2023-04-24T00:52:37;2.03;;;0.57;;
25319;SDS011;13256;49.012;8.610;2023-04-24T00:55:08;1.63;;;0.60;;
25319;SDS011;13256;49.012;8.610;2023-04-24T00:57:35;1.85;;;0.68;;
25319;SDS011;13256;49.012;8.610;2023-04-24T01:00:06;1.17;;;0.60;;
25319;SDS011;13256;49.012;8.610;2023-04-24T01:02:38;1.52;;;0.60;;
25319;SDS011;13256;49.012;8.610;2023-04-24T01:05:07;0.93;;;0.50;;
25319;SDS011;13256;49.012;8.610;2023-04-24T01:10:08;3.43;;;1.20;;
25319;SDS011;13256;49.012;8.610;2023-04-24T01:12:35;1.25;;;0.60;;
25319;SDS011;13256;49.012;8.610;2023-04-24T01:15:03;1.95;;;0.50;;
25319;SDS011;13256;49.012;8.610;2023-04-24T01:17:30;1.20;;;0.60;;
25319;SDS011;13256;49.012;8.610;2023-04-24T01:19:57;4.82;;;0.65;;
25319;SDS011;13256;49.012;8.610;2023-04-24T01:22:25;1.42;;;0.60;;
25319;SDS011;13256;49.012;8.610;2023-04-24T01:24:56;1.75;;;0.82;;
25319;SDS011;13256;49.012;8.610;2023-04-24T01:27:53;3.00;;;0.68;;
25319;SDS011;13256;49.012;8.610;2023-04-24T01:30:20;1.23;;;0.70;;
25319;SDS011;13256;49.012;8.610;2023-04-24T01:32:48;2.28;;;0.60;;
25319;SDS011;13256;49.012;8.610;2023-04-24T01:35:17;0.93;;;0.47;;
25319;SDS011;13256;49.012;8.610;2023-04-24T01:40:45;2.35;;;0.70;;
25319;SDS011;13256;49.012;8.610;2023-04-24T01:43:17;1.13;;;0.60;;
25319;SDS011;13256;49.012;8.610;2023-04-24T01:45:46;1.42;;;0.60;;
25319;SDS011;13256;49.012;8.610;2023-04-24T01:48:14;3.05;;;0.73;;
25319;SDS011;13256;49.012;8.610;2023-04-24T01:50:40;1.25;;;0.73;;
25319;SDS011;13256;49.012;8.610;2023-04-24T01:53:07;0.63;;;0.60;;
25319;SDS011;13256;49.012;8.610;2023-04-24T01:55:37;0.93;;;0.52;;
25319;SDS011;13256;49.012;8.610;2023-04-24T01:58:07;1.95;;;0.50;;
25319;SDS011;13256;49.012;8.610;2023-04-24T02:00:40;1.10;;;0.68;;
25319;SDS011;13256;49.012;8.610;2023-04-24T02:03:07;0.40;;;0.40;;
25319;SDS011;13256;49.012;8.610;2023-04-24T02:05:37;0.90;;;0.60;;
25319;SDS011;13256;49.012;8.610;2023-04-24T02:08:04;2.28;;;0.50;;
25319;SDS011;13256;49.012;8.610;2023-04-24T02:10:31;1.67;;;0.73;;
25319;SDS011;13256;49.012;8.610;2023-04-24T02:12:58;1.17;;;0.70;;
25319;SDS011;13256;49.012;8.610;2023-04-24T02:15:26;4.82;;;1.02;;
25319;SDS011;13256;49.012;8.610;2023-04-24T02:18:02;2.45;;;0.57;;
25319;SDS011;13256;49.012;8.610;2023-04-24T02:20:39;2.83;;;0.60;;
25319;SDS011;13256;49.012;8.610;2023-04-24T02:23:06;0.75;;;0.60;;
25319;SDS011;13256;49.012;8.610;2023-04-24T02:25:33;1.80;;;0.57;;
25319;SDS011;13256;49.012;8.610;2023-04-24T02:27:59;1.70;;;0.50;;
25319;SDS011;13256;49.012;8.610;2023-04-24T02:30:26;1.92;;;0.60;;
25319;SDS011;13256;49.012;8.610;2023-04-24T02:32:53;1.52;;;0.50;;
25319;SDS011;13256;49.012;8.610;2023-04-24T02:35:21;1.05;;;0.63;;
25319;SDS011;13256;49.012;8.610;2023-04-24T02:37:50;2.28;;;0.60;;
25319;SDS011;13256;49.012;8.610;2023-04-24T02:40:17;1.80;;;0.60;;
25319;SDS011;13256;49.012;8.610;2023-04-24T02:42:43;3.42;;;0.73;;
25319;SDS011;13256;49.012;8.610;2023-04-24T02:45:12;2.72;;;0.60;;
25319;SDS011;13256;49.012;8.610;2023-04-24T02:47:39;3.92;;;1.00;;
25319;SDS011;13256;49.012;8.610;2023-04-24T02:50:12;0.77;;;0.50;;
25319;SDS011;13256;49.012;8.610;2023-04-24T02:52:39;0.73;;;0.50;;
25319;SDS011;13256;49.012;8.610;2023-04-24T02:55:15;1.42;;;0.57;;
25319;SDS011;13256;49.012;8.610;2023-04-24T02:57:42;1.75;;;0.88;;
25319;SDS011;13256;49.012;8.610;2023-04-24T03:00:12;3.42;;;0.57;;
25319;SDS011;13256;49.012;8.610;2023-04-24T03:02:39;3.83;;;0.60;;
25319;SDS011;13256;49.012;8.610;2023-04-24T03:05:09;1.20;;;0.65;;
25319;SDS011;13256;49.012;8.610;2023-04-24T03:07:38;1.05;;;0.50;;
25319;SDS011;13256;49.012;8.610;2023-04-24T03:10:07;3.88;;;0.50;;
25319;SDS011;13256;49.012;8.610;2023-04-24T03:12:35;5.88;;;1.00;;
25319;SDS011;13256;49.012;8.610;2023-04-24T03:15:01;2.00;;;0.65;;
25319;SDS011;13256;49.012;8.610;2023-04-24T03:17:28;2.88;;;1.00;;
25319;SDS011;13256;49.012;8.610;2023-04-24T03:19:58;1.15;;;0.68;;
25319;SDS011;13256;49.012;8.610;2023-04-24T03:22:31;2.47;;;0.90;;
25319;SDS011;13256;49.012;8.610;2023-04-24T03:25:05;2.50;;;0.80;;
25319;SDS011;13256;49.012;8.610;2023-04-24T03:27:35;1.98;;;0.70;;
25319;SDS011;13256;49.012;8.610;2023-04-24T03:30:07;3.03;;;1.80;;
25319;SDS011;13256;49.012;8.610;2023-04-24T03:32:46;4.95;;;1.10;;
25319;SDS011;13256;49.012;8.610;2023-04-24T03:35:17;3.28;;;2.03;;
25319;SDS011;13256;49.012;8.610;2023-04-24T03:37:44;1.58;;;0.80;;
25319;SDS011;13256;49.012;8.610;2023-04-24T03:40:51;0.98;;;0.68;;
25319;SDS011;13256;49.012;8.610;2023-04-24T03:43:37;1.80;;;1.00;;
25319;SDS011;13256;49.012;8.610;2023-04-24T03:46:05;4.18;;;0.88;;
25319;SDS011;13256;49.012;8.610;2023-04-24T03:48:37;4.65;;;1.25;;
25319;SDS011;13256;49.012;8.610;2023-04-24T03:51:33;2.47;;;1.08;;
25319;SDS011;13256;49.012;8.610;2023-04-24T03:54:12;2.10;;;1.38;;
25319;SDS011;13256;49.012;8.610;2023-04-24T03:56:40;2.80;;;1.25;;
25319;SDS011;13256;49.012;8.610;2023-04-24T03:59:14;5.40;;;2.60;;
25319;SDS011;13256;49.012;8.610;2023-04-24T04:01:46;2.25;;;1.65;;
25319;SDS011;13256;49.012;8.610;2023-04-24T04:04:15;2.15;;;1.90;;
25319;SDS011;13256;49.012;8.610;2023-04-24T04:06:43;1.95;;;1.33;;
25319;SDS011;13256;49.012;8.610;2023-04-24T04:09:14;3.38;;;1.10;;
25319;SDS011;13256;49.012;8.610;2023-04-24T04:11:41;5.30;;;1.30;;
25319;SDS011;13256;49.012;8.610;2023-04-24T04:14:08;1.63;;;1.23;;
25319;SDS011;13256;49.012;8.610;2023-04-24T04:16:39;1.17;;;0.95;;
25319;SDS011;13256;49.012;8.610;2023-04-24T04:19:09;1.52;;;1.08;;
25319;SDS011;13256;49.012;8.610;2023-04-24T04:21:35;1.13;;;0.80;;
25319;SDS011;13256;49.012;8.610;2023-04-24T04:24:13;2.25;;;1.25;;
25319;SDS011;13256;49.012;8.610;2023-04-24T04:26:43;2.90;;;1.33;;
25319;SDS011;13256;49.012;8.610;2023-04-24T04:29:24;3.47;;;1.40;;
25319;SDS011;13256;49.012;8.610;2023-04-24T04:31:52;3.53;;;1.80;;
25319;SDS011;13256;49.012;8.610;2023-04-24T04:34:46;3.65;;;1.08;;
25319;SDS011;13256;49.012;8.610;2023-04-24T04:37:15;4.05;;;1.33;;
25319;SDS011;13256;49.012;8.610;2023-04-24T04:40:09;1.83;;;1.15;;
25319;SDS011;13256;49.012;8.610;2023-04-24T04:42:45;2.63;;;1.27;;
25319;SDS011;13256;49.012;8.610;2023-04-24T04:45:14;3.33;;;1.60;;
25319;SDS011;13256;49.012;8.610;2023-04-24T04:48:02;2.92;;;1.40;;
25319;SDS011;13256;49.012;8.610;2023-04-24T04:50:30;3.47;;;1.80;;
25319;SDS011;13256;49.012;8.610;2023-04-24T04:53:03;4.35;;;2.25;;
25319;SDS011;13256;49.012;8.610;2023-04-24T04:55:34;4.57;;;2.90;;
25319;SDS011;13256;49.012;8.610;2023-04-24T04:58:17;2.75;;;2.05;;
25319;SDS011;13256;49.012;8.610;2023-04-24T05:00:45;3.05;;;1.73;;
25319;SDS011;13256;49.012;8.610;2023-04-24T05:03:24;3.03;;;1.63;;
25319;SDS011;13256;49.012;8.610;2023-04-24T05:05:57;2.90;;;1.92;;
25319;SDS011;13256;49.012;8.610;2023-04-24T05:08:55;1.40;;;1.20;;
25319;SDS011;13256;49.012;8.610;2023-04-24T05:23:47;2.50;;;1.80;;
25319;SDS011;13256;49.012;8.610;2023-04-24T05:26:24;4.32;;;2.55;;
25319;SDS011;13256;49.012;8.610;2023-04-24T05:28:51;5.00;;;2.90;;
25319;SDS011;13256;49.012;8.610;2023-04-24T05:31:19;7.75;;;3.50;;
25319;SDS011;13256;49.012;8.610;2023-04-24T05:33:47;2.80;;;1.83;;
25319;SDS011;13256;49.012;8.610;2023-04-24T05:36:16;2.65;;;2.22;;
25319;SDS011;13256;49.012;8.610;2023-04-24T05:38:42;4.65;;;1.70;;
25319;SDS011;13256;49.012;8.610;2023-04-24T05:41:11;3.30;;;1.95;;
25319;SDS011;13256;49.012;8.610;2023-04-24T05:46:15;3.42;;;1.60;;
25319;SDS011;13256;49.012;8.610;2023-04-24T05:48:41;2.00;;;1.67;;
25319;SDS011;13256;49.012;8.610;2023-04-24T05:51:13;1.95;;;1.75;;
25319;SDS011;13256;49.012;8.610;2023-04-24T05:53:41;1.75;;;1.40;;
25319;SDS011;13256;49.012;8.610;2023-04-24T05:56:09;1.67;;;1.42;;
25319;SDS011;13256;49.012;8.610;2023-04-24T05:58:36;1.52;;;1.42;;
25319;SDS011;13256;49.012;8.610;2023-04-24T06:01:06;3.15;;;1.60;;
25319;SDS011;13256;49.012;8.610;2023-04-24T06:03:35;2.33;;;1.40;;
25319;SDS011;13256;49.012;8.610;2023-04-24T06:06:05;2.10;;;1.60;;
25319;SDS011;13256;49.012;8.610;2023-04-24T06:08:36;2.08;;;1.58;;
25319;SDS011;13256;49.012;8.610;2023-04-24T06:11:06;2.05;;;1.42;;
25319;SDS011;13256;49.012;8.610;2023-04-24T06:13:33;2.08;;;1.33;;
25319;SDS011;13256;49.012;8.610;2023-04-24T06:16:20;2.35;;;2.00;;
25319;SDS011;13256;49.012;8.610;2023-04-24T06:18:55;1.70;;;1.13;;
25319;SDS011;13256;49.012;8.610;2023-04-24T06:21:22;1.90;;;1.38;;
25319;SDS011;13256;49.012;8.610;2023-04-24T06:24:18;2.15;;;1.50;;
25319;SDS011;13256;49.012;8.610;2023-04-24T06:26:45;3.70;;;1.60;;
25319;SDS011;13256;49.012;8.610;2023-04-24T06:29:14;3.00;;;1.63;;
25319;SDS011;13256;49.012;8.610;2023-04-24T06:31:41;1.70;;;1.55;;
25319;SDS011;13256;49.012;8.610;2023-04-24T06:34:09;4.60;;;2.15;;
25319;SDS011;13256;49.012;8.610;2023-04-24T06:36:39;3.10;;;1.65;;
25319;SDS011;13256;49.012;8.610;2023-04-24T06:39:10;1.77;;;1.50;;
25319;SDS011;13256;49.012;8.610;2023-04-24T06:42:04;2.78;;;1.77;;
25319;SDS011;13256;49.012;8.610;2023-04-24T06:44:33;3.00;;;1.80;;
25319;SDS011;13256;49.012;8.610;2023-04-24T06:47:03;2.20;;;1.60;;
25319;SDS011;13256;49.012;8.610;2023-04-24T06:49:58;3.53;;;1.80;;
25319;SDS011;13256;49.012;8.610;2023-04-24T06:52:25;2.55;;;1.70;;
25319;SDS011;13256;49.012;8.610;2023-04-24T06:54:51;3.72;;;1.75;;
25319;SDS011;13256;49.012;8.610;2023-04-24T06:57:21;4.10;;;1.80;;
25319;SDS011;13256;49.012;8.610;2023-04-24T06:59:50;2.58;;;1.50;;
25319;SDS011;13256;49.012;8.610;2023-04-24T07:02:19;3.63;;;1.60;;
25319;SDS011;13256;49.012;8.610;2023-04-24T07:04:46;2.55;;;1.50;;
25319;SDS011;13256;49.012;8.610;2023-04-24T07:07:13;2.30;;;1.52;;
25319;SDS011;13256;49.012;8.610;2023-04-24T07:09:41;3.88;;;1.30;;
25319;SDS011;13256;49.012;8.610;2023-04-24T07:12:08;6.18;;;2.00;;
25319;SDS011;13256;49.012;8.610;2023-04-24T07:14:38;3.28;;;1.33;;
25319;SDS011;13256;49.012;8.610;2023-04-24T07:17:06;1.98;;;1.20;;
25319;SDS011;13256;49.012;8.610;2023-04-24T07:19:33;3.22;;;1.15;;
25319;SDS011;13256;49.012;8.610;2023-04-24T07:22:08;2.72;;;1.40;;
25319;SDS011;13256;49.012;8.610;2023-04-24T07:24:45;2.28;;;1.70;;
25319;SDS011;13256;49.012;8.610;2023-04-24T07:27:12;1.42;;;1.33;;
25319;SDS011;13256;49.012;8.610;2023-04-24T07:29:40;1.30;;;1.20;;
25319;SDS011;13256;49.012;8.610;2023-04-24T07:32:35;3.28;;;1.30;;
25319;SDS011;13256;49.012;8.610;2023-04-24T07:35:03;2.75;;;1.60;;
25319;SDS011;13256;49.012;8.610;2023-04-24T07:37:35;1.63;;;1.38;;
25319;SDS011;13256;49.012;8.610;2023-04-24T07:40:08;2.25;;;1.73;;
25319;SDS011;13256;49.012;8.610;2023-04-24T07:42:35;1.45;;;1.30;;
25319;SDS011;13256;49.012;8.610;2023-04-24T07:45:05;1.95;;;1.35;;
25319;SDS011;13256;49.012;8.610;2023-04-24T07:47:41;2.63;;;1.50;;
25319;SDS011;13256;49.012;8.610;2023-04-24T07:50:10;1.33;;;1.15;;
25319;SDS011;13256;49.012;8.610;2023-04-24T07:52:37;1.30;;;1.13;;
25319;SDS011;13256;49.012;8.610;2023-04-24T07:55:07;2.90;;;1.30;;
25319;SDS011;13256;49.012;8.610;2023-04-24T07:57:37;1.30;;;1.20;;
25319;SDS011;13256;49.012;8.610;2023-04-24T08:00:04;1.95;;;1.10;;
25319;SDS011;13256;49.012;8.610;2023-04-24T08:05:06;1.13;;;1.02;;
25319;SDS011;13256;49.012;8.610;2023-04-24T08:07:33;0.90;;;0.90;;
25319;SDS011;13256;49.012;8.610;2023-04-24T08:10:01;3.15;;;1.30;;
25319;SDS011;13256;49.012;8.610;2023-04-24T08:12:34;1.30;;;1.10;;
25319;SDS011;13256;49.012;8.610;2023-04-24T08:15:01;1.13;;;1.00;;
25319;SDS011;13256;49.012;8.610;2023-04-24T08:17:31;4.20;;;1.00;;
25319;SDS011;13256;49.012;8.610;2023-04-24T08:19:58;1.92;;;1.17;;
25319;SDS011;13256;49.012;8.610;2023-04-24T08:22:27;4.25;;;1.10;;
25319;SDS011;13256;49.012;8.610;2023-04-24T08:24:54;2.03;;;1.38;;
25319;SDS011;13256;49.012;8.610;2023-04-24T08:27:27;2.17;;;1.20;;
25319;SDS011;13256;49.012;8.610;2023-04-24T08:29:54;2.30;;;1.30;;
25319;SDS011;13256;49.012;8.610;2023-04-24T08:32:21;2.53;;;1.20;;
25319;SDS011;13256;49.012;8.610;2023-04-24T08:34:50;2.80;;;1.30;;
25319;SDS011;13256;49.012;8.610;2023-04-24T08:37:26;2.03;;;1.02;;
25319;SDS011;13256;49.012;8.610;2023-04-24T08:39:55;1.42;;;0.90;;
25319;SDS011;13256;49.012;8.610;2023-04-24T08:42:22;1.08;;;0.73;;
25319;SDS011;13256;49.012;8.610;2023-04-24T08:44:53;1.13;;;1.00;;
25319;SDS011;13256;49.012;8.610;2023-04-24T08:47:21;3.15;;;0.88;;
25319;SDS011;13256;49.012;8.610;2023-04-24T08:49:49;2.10;;;1.05;;
25319;SDS011;13256;49.012;8.610;2023-04-24T08:52:22;1.65;;;1.20;;
25319;SDS011;13256;49.012;8.610;2023-04-24T08:54:49;1.65;;;1.10;;
25319;SDS011;13256;49.012;8.610;2023-04-24T08:57:22;1.98;;;1.10;;
25319;SDS011;13256;49.012;8.610;2023-04-24T08:59:50;5.07;;;1.10;;
25319;SDS011;13256;49.012;8.610;2023-04-24T09:02:20;3.67;;;1.30;;
25319;SDS011;13256;49.012;8.610;2023-04-24T09:04:48;2.17;;;1.30;;
25319;SDS011;13256;49.012;8.610;2023-04-24T09:07:16;4.35;;;1.30;;
25319;SDS011;13256;49.012;8.610;2023-04-24T09:09:46;1.10;;;1.00;;
25319;SDS011;13256;49.012;8.610;2023-04-24T09:12:16;1.90;;;1.20;;
25319;SDS011;13256;49.012;8.610;2023-04-24T09:14:44;1.92;;;1.23;;
25319;SDS011;13256;49.012;8.610;2023-04-24T09:17:14;1.52;;;1.00;;
25319;SDS011;13256;49.012;8.610;2023-04-24T09:19:49;3.17;;;1.20;;
25319;SDS011;13256;49.012;8.610;2023-04-24T09:22:21;1.73;;;1.20;;
25319;SDS011;13256;49.012;8.610;2023-04-24T09:24:48;6.53;;;1.17;;
25319;SDS011;13256;49.012;8.610;2023-04-24T09:27:31;1.00;;;0.93;;
25319;SDS011;13256;49.012;8.610;2023-04-24T09:29:59;4.30;;;1.30;;
25319;SDS011;13256;49.012;8.610;2023-04-24T09:32:29;3.85;;;1.33;;
25319;SDS011;13256;49.012;8.610;2023-04-24T09:35:13;1.40;;;1.00;;
25319;SDS011;13256;49.012;8.610;2023-04-24T09:37:47;1.27;;;1.15;;
25319;SDS011;13256;49.012;8.610;2023-04-24T09:40:16;2.08;;;1.13;;
25319;SDS011;13256;49.012;8.610;2023-04-24T09:42:54;3.40;;;1.30;;
25319;SDS011;13256;49.012;8.610;2023-04-24T09:45:27;4.68;;;1.35;;
25319;SDS011;13256;49.012;8.610;2023-04-24T09:48:04;2.70;;;1.10;;
25319;SDS011;13256;49.012;8.610;2023-04-24T09:50:35;2.25;;;1.50;;
25319;SDS011;13256;49.012;8.610;2023-04-24T09:53:05;2.53;;;1.50;;
25319;SDS011;13256;49.012;8.610;2023-04-24T09:55:42;2.80;;;1.60;;
25319;SDS011;13256;49.012;8.610;2023-04-24T09:58:14;4.18;;;1.73;;
25319;SDS011;13256;49.012;8.610;2023-04-24T10:00:41;5.32;;;2.30;;
25319;SDS011;13256;49.012;8.610;2023-04-24T10:03:08;2.63;;;2.00;;
25319;SDS011;13256;49.012;8.610;2023-04-24T10:05:36;2.78;;;1.70;;
25319;SDS011;13256;49.012;8.610;2023-04-24T10:08:07;4.05;;;2.55;;
25319;SDS011;13256;49.012;8.610;2023-04-24T10:10:40;2.42;;;1.70;;
25319;SDS011;13256;49.012;8.610;2023-04-24T10:13:35;3.20;;;1.88;;
25319;SDS011;13256;49.012;8.610;2023-04-24T10:16:10;2.20;;;1.55;;
25319;SDS011;13256;49.012;8.610;2023-04-24T10:18:37;1.52;;;1.42;;
25319;SDS011;13256;49.012;8.610;2023-04-24T10:21:05;1.52;;;1.40;;
25319;SDS011;13256;49.012;8.610;2023-04-24T10:23:35;2.00;;;1.50;;
25319;SDS011;13256;49.012;8.610;2023-04-24T10:26:03;1.60;;;1.20;;
25319;SDS011;13256;49.012;8.610;2023-04-24T10:28:30;3.53;;;1.33;;
25319;SDS011;13256;49.012;8.610;2023-04-24T10:31:00;4.53;;;1.60;;
25319;SDS011;13256;49.012;8.610;2023-04-24T10:33:30;3.35;;;1.75;;
25319;SDS011;13256;49.012;8.610;2023-04-24T10:36:01;3.20;;;1.20;;
25319;SDS011;13256;49.012;8.610;2023-04-24T10:38:32;2.25;;;1.55;;
25319;SDS011;13256;49.012;8.610;2023-04-24T10:41:11;2.55;;;1.70;;
25319;SDS011;13256;49.012;8.610;2023-04-24T10:43:45;4.57;;;1.63;;
25319;SDS011;13256;49.012;8.610;2023-04-24T10:46:27;4.97;;;2.13;;
25319;SDS011;13256;49.012;8.610;2023-04-24T10:48:57;3.67;;;1.65;;
25319;SDS011;13256;49.012;8.610;2023-04-24T10:51:50;3.05;;;2.30;;
25319;SDS011;13256;49.012;8.610;2023-04-24T10:54:44;1.92;;;1.55;;
25319;SDS011;13256;49.012;8.610;2023-04-24T10:59:49;4.05;;;2.30;;
25319;SDS011;13256;49.012;8.610;2023-04-24T11:02:17;6.60;;;1.73;;
25319;SDS011;13256;49.012;8.610;2023-04-24T11:04:48;2.50;;;1.75;;
25319;SDS011;13256;49.012;8.610;2023-04-24T11:07:17;3.28;;;1.70;;
25319;SDS011;13256;49.012;8.610;2023-04-24T11:09:47;2.25;;;1.60;;
25319;SDS011;13256;49.012;8.610;2023-04-24T11:12:34;1.73;;;1.55;;
25319;SDS011;13256;49.012;8.610;2023-04-24T11:15:04;2.67;;;1.70;;
25319;SDS011;13256;49.012;8.610;2023-04-24T11:17:39;2.80;;;1.75;;
25319;SDS011;13256;49.012;8.610;2023-04-24T11:20:09;1.92;;;1.58;;
25319;SDS011;13256;49.012;8.610;2023-04-24T11:22:54;2.25;;;1.70;;
25319;SDS011;13256;49.012;8.610;2023-04-24T11:25:23;3.78;;;1.73;;
25319;SDS011;13256;49.012;8.610;2023-04-24T11:27:51;2.72;;;2.00;;
25319;SDS011;13256;49.012;8.610;2023-04-24T11:30:34;6.85;;;1.90;;
25319;SDS011;13256;49.012;8.610;2023-04-24T11:33:08;1.92;;;1.70;;
25319;SDS011;13256;49.012;8.610;2023-04-24T11:35:40;2.15;;;1.83;;
25319;SDS011;13256;49.012;8.610;2023-04-24T11:38:10;2.47;;;2.00;;
25319;SDS011;13256;49.012;8.610;2023-04-24T11:40:51;5.78;;;2.40;;
25319;SDS011;13256;49.012;8.610;2023-04-24T11:43:26;3.05;;;2.33;;
25319;SDS011;13256;49.012;8.610;2023-04-24T11:45:54;7.07;;;2.45;;
25319;SDS011;13256;49.012;8.610;2023-04-24T11:51:02;3.00;;;2.10;;
25319;SDS011;13256;49.012;8.610;2023-04-24T11:53:56;4.35;;;2.50;;
25319;SDS011;13256;49.012;8.610;2023-04-24T11:56:30;5.50;;;2.63;;
25319;SDS011;13256;49.012;8.610;2023-04-24T11:59:03;3.45;;;2.53;;
25319;SDS011;13256;49.012;8.610;2023-04-24T12:01:42;4.55;;;2.72;;
25319;SDS011;13256;49.012;8.610;2023-04-24T12:04:10;3.25;;;2.55;;
25319;SDS011;13256;49.012;8.610;2023-04-24T12:06:40;4.68;;;2.53;;
25319;SDS011;13256;49.012;8.610;2023-04-24T12:14:54;3.20;;;2.45;;
25319;SDS011;13256;49.012;8.610;2023-04-24T12:17:33;5.88;;;2.83;;
25319;SDS011;13256;49.012;8.610;2023-04-24T12:20:07;3.65;;;2.63;;
25319;SDS011;13256;49.012;8.610;2023-04-24T12:22:45;4.57;;;2.72;;
25319;SDS011;13256;49.012;8.610;2023-04-24T12:25:22;2.63;;;2.28;;
25319;SDS011;13256;49.012;8.610;2023-04-24T12:28:09;3.40;;;2.72;;
25319;SDS011;13256;49.012;8.610;2023-04-24T12:30:50;4.00;;;2.53;;
25319;SDS011;13256;49.012;8.610;2023-04-24T12:33:20;4.60;;;2.60;;
25319;SDS011;13256;49.012;8.610;2023-04-24T12:35:48;5.28;;;2.80;;
25319;SDS011;13256;49.012;8.610;2023-04-24T12:38:25;5.95;;;2.78;;
25319;SDS011;13256;49.012;8.610;2023-04-24T12:41:02;5.20;;;2.75;;
25319;SDS011;13256;49.012;8.610;2023-04-24T12:43:33;4.78;;;2.75;;
25319;SDS011;13256;49.012;8.610;2023-04-24T12:46:00;4.93;;;2.58;;
25319;SDS011;13256;49.012;8.610;2023-04-24T12:48:32;4.15;;;2.22;;
25319;SDS011;13256;49.012;8.610;2023-04-24T13:05:42;2.75;;;2.30;;
25319;SDS011;13256;49.012;8.610;2023-04-24T13:08:14;2.42;;;1.98;;
25319;SDS011;13256;49.012;8.610;2023-04-24T13:10:40;3.85;;;2.10;;
25319;SDS011;13256;49.012;8.610;2023-04-24T13:13:08;3.92;;;2.15;;
25319;SDS011;13256;49.012;8.610;2023-04-24T13:15:36;2.67;;;2.10;;
25319;SDS011;13256;49.012;8.610;2023-04-24T13:18:02;6.03;;;2.50;;
25319;SDS011;13256;49.012;8.610;2023-04-24T13:20:32;4.45;;;2.55;;
25319;SDS011;13256;49.012;8.610;2023-04-24T13:23:03;3.58;;;2.45;;
25319;SDS011;13256;49.012;8.610;2023-04-24T13:25:34;3.92;;;2.30;;
25319;SDS011;13256;49.012;8.610;2023-04-24T13:28:02;2.28;;;1.65;;
25319;SDS011;13256;49.012;8.610;2023-04-24T13:30:31;5.05;;;3.08;;
25319;SDS011;13256;49.012;8.610;2023-04-24T13:33:00;7.45;;;2.97;;
25319;SDS011;13256;49.012;8.610;2023-04-24T13:35:27;5.35;;;2.78;;
25319;SDS011;13256;49.012;8.610;2023-04-24T13:37:54;3.92;;;2.22;;
25319;SDS011;13256;49.012;8.610;2023-04-24T13:40:21;3.03;;;2.17;;
25319;SDS011;13256;49.012;8.610;2023-04-24T13:42:48;2.58;;;2.22;;
25319;SDS011;13256;49.012;8.610;2023-04-24T13:45:15;2.90;;;2.40;;
25319;SDS011;13256;49.012;8.610;2023-04-24T13:47:54;4.63;;;2.30;;
25319;SDS011;13256;49.012;8.610;2023-04-24T13:50:52;5.15;;;2.35;;
25319;SDS011;13256;49.012;8.610;2023-04-24T13:53:19;3.78;;;2.38;;
25319;SDS011;13256;49.012;8.610;2023-04-24T13:55:48;4.25;;;2.50;;
25319;SDS011;13256;49.012;8.610;2023-04-24T13:58:18;4.00;;;2.57;;
25319;SDS011;13256;49.012;8.610;2023-04-24T14:00:44;3.45;;;2.13;;
25319;SDS011;13256;49.012;8.610;2023-04-24T14:03:15;3.35;;;2.38;;
25319;SDS011;13256;49.012;8.610;2023-04-24T14:05:43;4.25;;;2.40;;
25319;SDS011;13256;49.012;8.610;2023-04-24T14:08:09;6.13;;;2.83;;
25319;SDS011;13256;49.012;8.610;2023-04-24T14:10:36;3.55;;;2.55;;
25319;SDS011;13256;49.012;8.610;2023-04-24T14:13:08;3.05;;;2.35;;
25319;SDS011;13256;49.012;8.610;2023-04-24T14:15:36;3.08;;;2.53;;
25319;SDS011;13256;49.012;8.610;2023-04-24T14:18:05;4.57;;;2.30;;
25319;SDS011;13256;49.012;8.610;2023-04-24T14:20:32;2.67;;;2.03;;
25319;SDS011;13256;49.012;8.610;2023-04-24T14:22:59;4.47;;;2.00;;
25319;SDS011;13256;49.012;8.610;2023-04-24T14:25:25;2.65;;;1.85;;
25319;SDS011;13256;49.012;8.610;2023-04-24T14:27:52;5.10;;;2.10;;
25319;SDS011;13256;49.012;8.610;2023-04-24T14:30:24;2.90;;;1.70;;
25319;SDS011;13256;49.012;8.610;2023-04-24T14:32:54;2.33;;;1.60;;
25319;SDS011;13256;49.012;8.610;2023-04-24T14:35:21;3.25;;;1.83;;
25319;SDS011;13256;49.012;8.610;2023-04-24T14:37:51;4.43;;;1.80;;
25319;SDS011;13256;49.012;8.610;2023-04-24T14:40:21;4.30;;;2.20;;
25319;SDS011;13256;49.012;8.610;2023-04-24T14:43:11;2.90;;;2.20;;
25319;SDS011;13256;49.012;8.610;2023-04-24T14:45:41;4.22;;;2.70;;
25319;SDS011;13256;49.012;8.610;2023-04-24T14:48:08;5.40;;;2.10;;
25319;SDS011;13256;49.012;8.610;2023-04-24T14:50:35;3.40;;;2.00;;
25319;SDS011;13256;49.012;8.610;2023-04-24T14:53:02;3.42;;;1.80;;
25319;SDS011;13256;49.012;8.610;2023-04-24T14:55:31;2.85;;;2.15;;
25319;SDS011;13256;49.012;8.610;2023-04-24T14:58:02;2.53;;;1.80;;
25319;SDS011;13256;49.012;8.610;2023-04-24T15:00:29;4.75;;;1.85;;
25319;SDS011;13256;49.012;8.610;2023-04-24T15:03:00;2.70;;;1.73;;
25319;SDS011;13256;49.012;8.610;2023-04-24T15:05:27;3.00;;;1.45;;
25319;SDS011;13256;49.012;8.610;2023-04-24T15:08:20;1.63;;;1.30;;
25319;SDS011;13256;49.012;8.610;2023-04-24T15:10:47;3.80;;;1.90;;
25319;SDS011;13256;49.012;8.610;2023-04-24T15:13:15;1.85;;;1.50;;
25319;SDS011;13256;49.012;8.610;2023-04-24T15:15:45;4.75;;;2.13;;
25319;SDS011;13256;49.012;8.610;2023-04-24T15:18:15;1.58;;;1.38;;
25319;SDS011;13256;49.012;8.610;2023-04-24T15:20:45;2.45;;;1.70;;
25319;SDS011;13256;49.012;8.610;2023-04-24T15:23:12;3.60;;;1.88;;
25319;SDS011;13256;49.012;8.610;2023-04-24T15:25:39;3.70;;;1.80;;
25319;SDS011;13256;49.012;8.610;2023-04-24T15:28:06;2.25;;;1.70;;
25319;SDS011;13256;49.012;8.610;2023-04-24T15:30:34;4.50;;;1.98;;
25319;SDS011;13256;49.012;8.610;2023-04-24T15:33:01;2.13;;;1.67;;
25319;SDS011;13256;49.012;8.610;2023-04-24T15:35:55;2.28;;;1.55;;
25319;SDS011;13256;49.012;8.610;2023-04-24T15:38:23;1.55;;;1.42;;
25319;SDS011;13256;49.012;8.610;2023-04-24T15:40:55;2.22;;;1.50;;
25319;SDS011;13256;49.012;8.610;2023-04-24T15:43:23;2.35;;;1.35;;
25319;SDS011;13256;49.012;8.610;2023-04-24T15:45:50;1.42;;;1.33;;
25319;SDS011;13256;49.012;8.610;2023-04-24T15:48:21;3.00;;;1.83;;
25319;SDS011;13256;49.012;8.610;2023-04-24T15:50:51;1.55;;;1.33;;
25319;SDS011;13256;49.012;8.610;2023-04-24T15:53:21;3.35;;;1.88;;
25319;SDS011;13256;49.012;8.610;2023-04-24T15:55:48;2.08;;;1.40;;
25319;SDS011;13256;49.012;8.610;2023-04-24T15:58:17;3.28;;;1.50;;
25319;SDS011;13256;49.012;8.610;2023-04-24T16:00:46;2.22;;;1.52;;
25319;SDS011;13256;49.012;8.610;2023-04-24T16:03:14;2.67;;;1.80;;
25319;SDS011;13256;49.012;8.610;2023-04-24T16:05:41;2.72;;;1.60;;